Aérodrome :
LOGIN :

S'inscrire | Disclaimer

   EN    FR    IT 

 










Légende :    VFR   VFR Marginal   IFR   IFR Intensif   IFR Très Intensif
Visi : 
Plafond : 
>= 8 km
>= 3000ft
5 à 8 km
1000 à 3000 ft
1500m à 5 km
500 à 1000 ft
800 à 1500m
200 à 500 ft
< 800m
< 200 ft
Symboles :   Orages  Brouillard  Fortes neiges  Fortes précipitations  Vent > 20 kt
SIGMETs :   Divers  Orages  Givrage  Turbulence  Onde Orograph.  Cendres Volcan.






- Altitude de l'aérodrome : 112 ft
- Code IATA : KIR


EIKY - Kerry Farranfore

DERNIER METAR :
  • 061100Z 29012G23KT 240V330 9999 SCT018 BKN027 11/06 Q1005

METARs EXPIRÉS :
  • 061030Z 29013G23KT 260V330 9999 SCT024 SCT029 11/06 Q1005
  • 061000Z 27009KT 240V320 9999 -RA SCT023 BKN029 10/07 Q1005
  • 060930Z 27008KT 240V300 9999 BKN008 BKN026 10/08 Q1004
  • 060900Z 27013KT 240V310 6000 -RA BKN010 BKN018 10/09 Q1004
  • 060830Z 26014KT 9999 BKN009 BKN013 10/09 Q1003 RESHRA

TAF TAF EIKY
Valide du 06 à 09h jusqu'au 06 à 18h UTC


060800Z 0609/0618 27015G28KT 9999 -RA SCT010 BKN015
TEMPO 0609/0612 -SHRA BKN010
PROB30
TEMPO 0609/0612 5000 SHRA SCT018CB
BECMG 0615/0617 27010KT



MET'MAP, la Météo Aéronautique d'un coup d'oeil ! - Copyright ORBIFLY Décembre 2007 - Disclaimer

ORBIFLY MET'MAP TEAM :

Programmation & Développement : Alexandra Zaïnal
Sur une idée originale de : Baudouin d'Aumeries
Assistance à la programmation : Marc-Olivier Méhu
Soutien technique & logistique : Manuel Goepfert

Contact : metmap@orbifly.com




SOURCES & CREDITS :

   NOAA